sensor_id;sensor_type;location;lat;lon;timestamp;temperature;humidity
44863;DHT22;30597;49.628;10.850;2022-12-07T00:02:01;17.90;53.80
44863;DHT22;30597;49.628;10.850;2022-12-07T00:04:26;17.90;54.00
44863;DHT22;30597;49.628;10.850;2022-12-07T00:06:52;17.90;54.10
44863;DHT22;30597;49.628;10.850;2022-12-07T00:09:19;17.90;54.00
44863;DHT22;30597;49.628;10.850;2022-12-07T00:11:48;17.90;54.20
44863;DHT22;30597;49.628;10.850;2022-12-07T00:14:15;17.90;54.00
44863;DHT22;30597;49.628;10.850;2022-12-07T00:16:42;17.80;53.90
44863;DHT22;30597;49.628;10.850;2022-12-07T00:19:11;17.80;54.00
44863;DHT22;30597;49.628;10.850;2022-12-07T00:21:37;17.90;54.20
44863;DHT22;30597;49.628;10.850;2022-12-07T00:24:04;17.80;54.00
44863;DHT22;30597;49.628;10.850;2022-12-07T00:26:33;17.80;54.20
44863;DHT22;30597;49.628;10.850;2022-12-07T00:29:05;17.80;54.20
44863;DHT22;30597;49.628;10.850;2022-12-07T00:31:36;17.80;54.30
44863;DHT22;30597;49.628;10.850;2022-12-07T00:34:07;17.70;54.20
44863;DHT22;30597;49.628;10.850;2022-12-07T00:36:36;17.70;54.20
44863;DHT22;30597;49.628;10.850;2022-12-07T00:39:02;17.70;54.40
44863;DHT22;30597;49.628;10.850;2022-12-07T00:41:29;17.70;54.40
44863;DHT22;30597;49.628;10.850;2022-12-07T00:43:55;17.60;54.30
44863;DHT22;30597;49.628;10.850;2022-12-07T00:46:21;17.60;54.30
44863;DHT22;30597;49.628;10.850;2022-12-07T00:48:48;17.60;54.40
44863;DHT22;30597;49.628;10.850;2022-12-07T00:51:15;17.60;54.50
44863;DHT22;30597;49.628;10.850;2022-12-07T00:53:41;17.60;54.50
44863;DHT22;30597;49.628;10.850;2022-12-07T00:56:08;17.50;54.30
44863;DHT22;30597;49.628;10.850;2022-12-07T00:58:34;17.50;54.50
44863;DHT22;30597;49.628;10.850;2022-12-07T01:01:01;17.50;54.50
44863;DHT22;30597;49.628;10.850;2022-12-07T01:03:27;17.50;54.00
44863;DHT22;30597;49.628;10.850;2022-12-07T01:05:55;17.50;54.40
44863;DHT22;30597;49.628;10.850;2022-12-07T01:08:21;17.50;54.50
44863;DHT22;30597;49.628;10.850;2022-12-07T01:10:48;17.50;54.60
44863;DHT22;30597;49.628;10.850;2022-12-07T01:13:14;17.40;54.50
44863;DHT22;30597;49.628;10.850;2022-12-07T01:15:41;17.40;54.50
44863;DHT22;30597;49.628;10.850;2022-12-07T01:18:07;17.40;54.40
44863;DHT22;30597;49.628;10.850;2022-12-07T01:20:32;17.40;54.40
44863;DHT22;30597;49.628;10.850;2022-12-07T01:22:58;17.40;54.20
44863;DHT22;30597;49.628;10.850;2022-12-07T01:25:24;17.40;54.60
44863;DHT22;30597;49.628;10.850;2022-12-07T01:27:49;17.30;54.50
44863;DHT22;30597;49.628;10.850;2022-12-07T01:30:15;17.40;54.30
44863;DHT22;30597;49.628;10.850;2022-12-07T01:32:40;17.40;54.30
44863;DHT22;30597;49.628;10.850;2022-12-07T01:35:06;17.40;54.40
44863;DHT22;30597;49.628;10.850;2022-12-07T01:37:36;17.30;54.50
44863;DHT22;30597;49.628;10.850;2022-12-07T01:40:04;17.30;54.20
44863;DHT22;30597;49.628;10.850;2022-12-07T01:42:30;17.30;54.20
44863;DHT22;30597;49.628;10.850;2022-12-07T01:47:57;17.30;54.60
44863;DHT22;30597;49.628;10.850;2022-12-07T01:50:26;17.20;54.40
44863;DHT22;30597;49.628;10.850;2022-12-07T01:52:55;17.20;54.60
44863;DHT22;30597;49.628;10.850;2022-12-07T01:55:21;17.20;54.60
44863;DHT22;30597;49.628;10.850;2022-12-07T01:57:50;17.20;54.60
44863;DHT22;30597;49.628;10.850;2022-12-07T02:00:17;17.20;54.40
44863;DHT22;30597;49.628;10.850;2022-12-07T02:05:31;17.20;54.50
44863;DHT22;30597;49.628;10.850;2022-12-07T02:07:58;17.10;54.60
44863;DHT22;30597;49.628;10.850;2022-12-07T02:10:27;17.10;54.60
44863;DHT22;30597;49.628;10.850;2022-12-07T02:15:33;17.20;54.90
44863;DHT22;30597;49.628;10.850;2022-12-07T02:26:55;17.10;55.00
44863;DHT22;30597;49.628;10.850;2022-12-07T02:32:40;17.20;54.80
44863;DHT22;30597;49.628;10.850;2022-12-07T02:40:36;17.20;54.90
44863;DHT22;30597;49.628;10.850;2022-12-07T02:45:39;17.20;54.80
44863;DHT22;30597;49.628;10.850;2022-12-07T02:48:08;17.20;55.40
44863;DHT22;30597;49.628;10.850;2022-12-07T02:50:35;17.20;54.70
44863;DHT22;30597;49.628;10.850;2022-12-07T02:53:01;17.20;54.70
44863;DHT22;30597;49.628;10.850;2022-12-07T02:55:34;17.20;54.70
44863;DHT22;30597;49.628;10.850;2022-12-07T03:07:00;17.10;54.70
44863;DHT22;30597;49.628;10.850;2022-12-07T03:09:41;17.10;54.70
44863;DHT22;30597;49.628;10.850;2022-12-07T03:12:13;17.20;54.70
44863;DHT22;30597;49.628;10.850;2022-12-07T03:14:47;17.10;54.60
44863;DHT22;30597;49.628;10.850;2022-12-07T03:17:19;17.10;54.60
44863;DHT22;30597;49.628;10.850;2022-12-07T03:19:48;17.10;54.50
44863;DHT22;30597;49.628;10.850;2022-12-07T03:22:14;17.10;54.60
44863;DHT22;30597;49.628;10.850;2022-12-07T03:24:45;17.10;54.70
44863;DHT22;30597;49.628;10.850;2022-12-07T03:27:20;17.10;54.70
44863;DHT22;30597;49.628;10.850;2022-12-07T03:29:58;17.10;54.70
44863;DHT22;30597;49.628;10.850;2022-12-07T03:32:57;17.10;54.50
44863;DHT22;30597;49.628;10.850;2022-12-07T03:35:31;17.10;54.60
44863;DHT22;30597;49.628;10.850;2022-12-07T03:38:08;17.00;54.60
44863;DHT22;30597;49.628;10.850;2022-12-07T03:40:50;17.00;54.60
44863;DHT22;30597;49.628;10.850;2022-12-07T03:43:19;17.00;54.60
44863;DHT22;30597;49.628;10.850;2022-12-07T03:46:02;17.00;54.70
44863;DHT22;30597;49.628;10.850;2022-12-07T03:48:37;16.90;54.70
44863;DHT22;30597;49.628;10.850;2022-12-07T03:51:32;16.90;54.60
44863;DHT22;30597;49.628;10.850;2022-12-07T03:54:15;16.90;54.60
44863;DHT22;30597;49.628;10.850;2022-12-07T03:56:46;16.90;54.40
44863;DHT22;30597;49.628;10.850;2022-12-07T03:59:14;16.90;54.60
44863;DHT22;30597;49.628;10.850;2022-12-07T04:01:42;16.90;54.60
44863;DHT22;30597;49.628;10.850;2022-12-07T04:04:08;16.90;54.50
44863;DHT22;30597;49.628;10.850;2022-12-07T04:06:33;16.90;54.60
44863;DHT22;30597;49.628;10.850;2022-12-07T04:08:59;17.10;54.50
44863;DHT22;30597;49.628;10.850;2022-12-07T04:11:24;17.20;54.20
44863;DHT22;30597;49.628;10.850;2022-12-07T04:13:50;17.20;54.00
44863;DHT22;30597;49.628;10.850;2022-12-07T04:16:34;17.40;54.00
44863;DHT22;30597;49.628;10.850;2022-12-07T04:19:00;17.40;53.80
44863;DHT22;30597;49.628;10.850;2022-12-07T04:21:25;17.60;53.70
44863;DHT22;30597;49.628;10.850;2022-12-07T04:23:51;17.70;53.60
44863;DHT22;30597;49.628;10.850;2022-12-07T04:26:16;17.70;53.40
44863;DHT22;30597;49.628;10.850;2022-12-07T04:28:42;17.80;53.40
44863;DHT22;30597;49.628;10.850;2022-12-07T04:31:07;17.90;53.30
44863;DHT22;30597;49.628;10.850;2022-12-07T04:33:33;17.90;53.20
44863;DHT22;30597;49.628;10.850;2022-12-07T04:35:58;18.00;53.10
44863;DHT22;30597;49.628;10.850;2022-12-07T04:38:24;18.10;53.00
44863;DHT22;30597;49.628;10.850;2022-12-07T04:40:49;18.20;52.90
44863;DHT22;30597;49.628;10.850;2022-12-07T04:43:15;18.30;52.80
44863;DHT22;30597;49.628;10.850;2022-12-07T04:45:48;18.40;52.80
44863;DHT22;30597;49.628;10.850;2022-12-07T04:48:14;18.40;52.70
44863;DHT22;30597;49.628;10.850;2022-12-07T04:50:40;18.50;52.60
44863;DHT22;30597;49.628;10.850;2022-12-07T04:53:05;18.50;52.50
44863;DHT22;30597;49.628;10.850;2022-12-07T04:55:31;18.50;52.30
44863;DHT22;30597;49.628;10.850;2022-12-07T04:57:56;18.50;52.10
44863;DHT22;30597;49.628;10.850;2022-12-07T05:00:22;18.50;51.90
44863;DHT22;30597;49.628;10.850;2022-12-07T05:02:48;18.60;52.40
44863;DHT22;30597;49.628;10.850;2022-12-07T05:05:13;18.60;52.30
44863;DHT22;30597;49.628;10.850;2022-12-07T05:07:39;18.60;52.20
44863;DHT22;30597;49.628;10.850;2022-12-07T05:10:07;18.70;52.20
44863;DHT22;30597;49.628;10.850;2022-12-07T05:12:32;18.70;52.20
44863;DHT22;30597;49.628;10.850;2022-12-07T05:14:58;18.70;52.20
44863;DHT22;30597;49.628;10.850;2022-12-07T05:17:23;18.70;52.10
44863;DHT22;30597;49.628;10.850;2022-12-07T05:19:49;18.70;52.10
44863;DHT22;30597;49.628;10.850;2022-12-07T05:22:15;18.60;51.90
44863;DHT22;30597;49.628;10.850;2022-12-07T05:24:40;18.60;52.40
44863;DHT22;30597;49.628;10.850;2022-12-07T05:27:06;18.50;51.90
44863;DHT22;30597;49.628;10.850;2022-12-07T05:29:31;18.50;52.30
44863;DHT22;30597;49.628;10.850;2022-12-07T05:31:57;18.40;52.30
44863;DHT22;30597;49.628;10.850;2022-12-07T05:34:23;18.40;52.50
44863;DHT22;30597;49.628;10.850;2022-12-07T05:36:48;18.30;52.40
44863;DHT22;30597;49.628;10.850;2022-12-07T05:39:15;18.20;52.40
44863;DHT22;30597;49.628;10.850;2022-12-07T05:41:41;18.20;52.50
44863;DHT22;30597;49.628;10.850;2022-12-07T05:44:25;18.10;52.70
44863;DHT22;30597;49.628;10.850;2022-12-07T05:46:51;18.10;52.80
44863;DHT22;30597;49.628;10.850;2022-12-07T05:49:16;17.90;52.50
44863;DHT22;30597;49.628;10.850;2022-12-07T05:51:42;17.90;52.90
44863;DHT22;30597;49.628;10.850;2022-12-07T05:54:08;17.90;52.80
44863;DHT22;30597;49.628;10.850;2022-12-07T05:56:33;17.90;53.00
44863;DHT22;30597;49.628;10.850;2022-12-07T05:58:59;17.80;52.50
44863;DHT22;30597;49.628;10.850;2022-12-07T06:01:43;17.80;52.70
44863;DHT22;30597;49.628;10.850;2022-12-07T06:04:08;17.80;53.20
44863;DHT22;30597;49.628;10.850;2022-12-07T06:06:34;17.70;53.10
44863;DHT22;30597;49.628;10.850;2022-12-07T06:08:59;17.70;52.70
44863;DHT22;30597;49.628;10.850;2022-12-07T06:11:25;17.70;53.00
44863;DHT22;30597;49.628;10.850;2022-12-07T06:14:09;17.70;52.90
44863;DHT22;30597;49.628;10.850;2022-12-07T06:16:35;17.70;53.30
44863;DHT22;30597;49.628;10.850;2022-12-07T06:19:00;17.60;53.30
44863;DHT22;30597;49.628;10.850;2022-12-07T06:21:26;17.60;53.50
44863;DHT22;30597;49.628;10.850;2022-12-07T06:23:52;17.60;53.50
44863;DHT22;30597;49.628;10.850;2022-12-07T06:26:18;17.60;53.60
44863;DHT22;30597;49.628;10.850;2022-12-07T06:28:43;17.60;53.40
44863;DHT22;30597;49.628;10.850;2022-12-07T06:31:09;17.70;53.60
44863;DHT22;30597;49.628;10.850;2022-12-07T06:33:35;17.80;53.40
44863;DHT22;30597;49.628;10.850;2022-12-07T06:36:01;17.90;53.20
44863;DHT22;30597;49.628;10.850;2022-12-07T06:38:26;18.00;52.90
44863;DHT22;30597;49.628;10.850;2022-12-07T06:40:52;18.10;52.70
44863;DHT22;30597;49.628;10.850;2022-12-07T06:43:17;18.20;52.70
44863;DHT22;30597;49.628;10.850;2022-12-07T06:45:43;18.30;52.40
44863;DHT22;30597;49.628;10.850;2022-12-07T06:48:08;18.30;52.20
44863;DHT22;30597;49.628;10.850;2022-12-07T06:50:34;18.40;52.40
44863;DHT22;30597;49.628;10.850;2022-12-07T06:52:59;18.50;52.30
44863;DHT22;30597;49.628;10.850;2022-12-07T06:55:25;18.50;52.20
44863;DHT22;30597;49.628;10.850;2022-12-07T06:57:51;18.60;52.00
44863;DHT22;30597;49.628;10.850;2022-12-07T07:00:16;18.60;51.80
44863;DHT22;30597;49.628;10.850;2022-12-07T07:02:42;18.60;52.10
44863;DHT22;30597;49.628;10.850;2022-12-07T07:05:08;18.70;52.10
44863;DHT22;30597;49.628;10.850;2022-12-07T07:07:33;18.70;52.10
44863;DHT22;30597;49.628;10.850;2022-12-07T07:09:59;18.70;52.10
44863;DHT22;30597;49.628;10.850;2022-12-07T07:12:24;18.80;52.00
44863;DHT22;30597;49.628;10.850;2022-12-07T07:14:50;18.80;51.90
44863;DHT22;30597;49.628;10.850;2022-12-07T07:17:16;18.90;51.90
44863;DHT22;30597;49.628;10.850;2022-12-07T07:19:41;18.90;51.80
44863;DHT22;30597;49.628;10.850;2022-12-07T07:22:07;18.90;51.70
44863;DHT22;30597;49.628;10.850;2022-12-07T07:24:32;19.00;51.80
44863;DHT22;30597;49.628;10.850;2022-12-07T07:26:58;19.00;51.70
44863;DHT22;30597;49.628;10.850;2022-12-07T07:29:23;19.10;51.70
44863;DHT22;30597;49.628;10.850;2022-12-07T07:31:49;19.10;51.60
44863;DHT22;30597;49.628;10.850;2022-12-07T07:34:14;19.10;51.60
44863;DHT22;30597;49.628;10.850;2022-12-07T07:36:40;19.10;52.10
44863;DHT22;30597;49.628;10.850;2022-12-07T07:39:06;19.10;51.50
44863;DHT22;30597;49.628;10.850;2022-12-07T07:41:31;19.20;51.50
44863;DHT22;30597;49.628;10.850;2022-12-07T07:43:57;19.20;51.40
44863;DHT22;30597;49.628;10.850;2022-12-07T07:46:23;19.20;51.10
44863;DHT22;30597;49.628;10.850;2022-12-07T07:48:48;19.20;51.20
44863;DHT22;30597;49.628;10.850;2022-12-07T07:51:14;19.20;51.40
44863;DHT22;30597;49.628;10.850;2022-12-07T07:53:39;19.20;51.40
44863;DHT22;30597;49.628;10.850;2022-12-07T07:56:05;19.20;51.00
44863;DHT22;30597;49.628;10.850;2022-12-07T07:58:31;19.20;51.30
44863;DHT22;30597;49.628;10.850;2022-12-07T08:00:56;19.30;51.40
44863;DHT22;30597;49.628;10.850;2022-12-07T08:03:22;19.30;51.40
44863;DHT22;30597;49.628;10.850;2022-12-07T08:05:47;19.30;51.30
44863;DHT22;30597;49.628;10.850;2022-12-07T08:08:13;19.30;51.30
44863;DHT22;30597;49.628;10.850;2022-12-07T08:10:38;19.40;51.30
44863;DHT22;30597;49.628;10.850;2022-12-07T08:13:04;19.40;51.20
44863;DHT22;30597;49.628;10.850;2022-12-07T08:15:44;19.40;51.20
44863;DHT22;30597;49.628;10.850;2022-12-07T08:18:11;19.40;50.90
44863;DHT22;30597;49.628;10.850;2022-12-07T08:20:38;19.40;51.10
44863;DHT22;30597;49.628;10.850;2022-12-07T08:23:04;19.50;51.20
44863;DHT22;30597;49.628;10.850;2022-12-07T08:25:30;19.50;51.10
44863;DHT22;30597;49.628;10.850;2022-12-07T08:27:56;19.50;51.00
44863;DHT22;30597;49.628;10.850;2022-12-07T08:30:22;19.50;51.00
44863;DHT22;30597;49.628;10.850;2022-12-07T08:32:48;19.50;50.90
44863;DHT22;30597;49.628;10.850;2022-12-07T08:35:15;19.50;51.00
44863;DHT22;30597;49.628;10.850;2022-12-07T08:37:41;19.50;51.00
44863;DHT22;30597;49.628;10.850;2022-12-07T08:40:08;19.50;51.10
44863;DHT22;30597;49.628;10.850;2022-12-07T08:42:34;19.60;51.00
44863;DHT22;30597;49.628;10.850;2022-12-07T08:45:10;19.60;51.00
44863;DHT22;30597;49.628;10.850;2022-12-07T08:47:40;19.60;51.00
44863;DHT22;30597;49.628;10.850;2022-12-07T08:50:08;19.60;51.00
44863;DHT22;30597;49.628;10.850;2022-12-07T08:52:35;19.60;50.90
44863;DHT22;30597;49.628;10.850;2022-12-07T08:55:03;19.60;50.90
44863;DHT22;30597;49.628;10.850;2022-12-07T08:57:29;19.70;51.50
44863;DHT22;30597;49.628;10.850;2022-12-07T08:59:55;19.60;50.70
44863;DHT22;30597;49.628;10.850;2022-12-07T09:02:21;19.60;50.80
44863;DHT22;30597;49.628;10.850;2022-12-07T09:04:47;19.70;50.90
44863;DHT22;30597;49.628;10.850;2022-12-07T09:07:12;19.70;50.90
44863;DHT22;30597;49.628;10.850;2022-12-07T09:09:38;19.70;50.90
44863;DHT22;30597;49.628;10.850;2022-12-07T09:12:03;19.70;50.90
44863;DHT22;30597;49.628;10.850;2022-12-07T09:14:29;19.70;50.80
44863;DHT22;30597;49.628;10.850;2022-12-07T09:16:55;19.70;50.70
44863;DHT22;30597;49.628;10.850;2022-12-07T09:19:20;19.70;50.80
44863;DHT22;30597;49.628;10.850;2022-12-07T09:21:46;19.80;50.80
44863;DHT22;30597;49.628;10.850;2022-12-07T09:24:12;19.80;50.70
44863;DHT22;30597;49.628;10.850;2022-12-07T09:26:38;19.80;50.70
44863;DHT22;30597;49.628;10.850;2022-12-07T09:29:05;19.80;50.70
44863;DHT22;30597;49.628;10.850;2022-12-07T09:31:31;19.80;50.60
44863;DHT22;30597;49.628;10.850;2022-12-07T09:33:58;19.90;50.60
44863;DHT22;30597;49.628;10.850;2022-12-07T09:36:24;19.90;50.60
44863;DHT22;30597;49.628;10.850;2022-12-07T09:38:50;19.90;50.60
44863;DHT22;30597;49.628;10.850;2022-12-07T09:41:16;19.90;50.60
44863;DHT22;30597;49.628;10.850;2022-12-07T09:43:42;19.90;50.60
44863;DHT22;30597;49.628;10.850;2022-12-07T09:46:13;19.90;50.60
44863;DHT22;30597;49.628;10.850;2022-12-07T09:48:42;19.90;50.60
44863;DHT22;30597;49.628;10.850;2022-12-07T09:51:20;19.90;50.50
44863;DHT22;30597;49.628;10.850;2022-12-07T09:53:46;19.90;50.40
44863;DHT22;30597;49.628;10.850;2022-12-07T09:56:16;19.90;50.40
44863;DHT22;30597;49.628;10.850;2022-12-07T09:58:43;20.00;50.50
44863;DHT22;30597;49.628;10.850;2022-12-07T10:03:37;19.90;50.30
44863;DHT22;30597;49.628;10.850;2022-12-07T10:06:04;19.90;50.40
44863;DHT22;30597;49.628;10.850;2022-12-07T10:08:30;20.00;50.40
44863;DHT22;30597;49.628;10.850;2022-12-07T10:10:56;19.90;50.30
44863;DHT22;30597;49.628;10.850;2022-12-07T10:13:35;19.90;50.30
44863;DHT22;30597;49.628;10.850;2022-12-07T10:16:00;20.00;50.40
44863;DHT22;30597;49.628;10.850;2022-12-07T10:18:39;20.00;50.40
44863;DHT22;30597;49.628;10.850;2022-12-07T10:21:20;19.90;50.40
44863;DHT22;30597;49.628;10.850;2022-12-07T10:24:04;19.90;50.40
44863;DHT22;30597;49.628;10.850;2022-12-07T10:26:36;19.90;50.40
44863;DHT22;30597;49.628;10.850;2022-12-07T10:29:17;19.90;50.40
44863;DHT22;30597;49.628;10.850;2022-12-07T10:31:46;19.90;50.50
44863;DHT22;30597;49.628;10.850;2022-12-07T10:34:30;19.90;50.30
44863;DHT22;30597;49.628;10.850;2022-12-07T10:42:31;20.00;50.50
44863;DHT22;30597;49.628;10.850;2022-12-07T10:53:24;19.90;50.50
44863;DHT22;30597;49.628;10.850;2022-12-07T11:01:46;20.00;50.50
44863;DHT22;30597;49.628;10.850;2022-12-07T11:04:39;20.00;50.50
44863;DHT22;30597;49.628;10.850;2022-12-07T11:07:40;20.00;50.50
44863;DHT22;30597;49.628;10.850;2022-12-07T11:13:04;20.00;50.50
44863;DHT22;30597;49.628;10.850;2022-12-07T11:18:50;20.10;50.60
44863;DHT22;30597;49.628;10.850;2022-12-07T11:21:30;20.10;50.50
44863;DHT22;30597;49.628;10.850;2022-12-07T11:24:15;20.00;50.40
44863;DHT22;30597;49.628;10.850;2022-12-07T11:32:49;20.10;50.40
44863;DHT22;30597;49.628;10.850;2022-12-07T11:35:31;20.10;50.40
44863;DHT22;30597;49.628;10.850;2022-12-07T11:38:10;20.10;50.40
44863;DHT22;30597;49.628;10.850;2022-12-07T11:40:38;20.10;50.30
44863;DHT22;30597;49.628;10.850;2022-12-07T11:43:14;20.10;50.30
44863;DHT22;30597;49.628;10.850;2022-12-07T11:45:43;20.20;50.30
44863;DHT22;30597;49.628;10.850;2022-12-07T11:48:34;20.20;50.30
44863;DHT22;30597;49.628;10.850;2022-12-07T11:51:02;20.20;50.30
44863;DHT22;30597;49.628;10.850;2022-12-07T11:53:41;20.20;50.20
44863;DHT22;30597;49.628;10.850;2022-12-07T11:56:13;20.20;50.20
44863;DHT22;30597;49.628;10.850;2022-12-07T12:03:49;20.20;50.20
44863;DHT22;30597;49.628;10.850;2022-12-07T12:06:15;20.20;50.20
44863;DHT22;30597;49.628;10.850;2022-12-07T12:08:47;20.20;50.20
44863;DHT22;30597;49.628;10.850;2022-12-07T12:20:19;20.20;50.20
44863;DHT22;30597;49.628;10.850;2022-12-07T12:22:53;20.20;50.20
44863;DHT22;30597;49.628;10.850;2022-12-07T12:27:50;20.20;50.20
44863;DHT22;30597;49.628;10.850;2022-12-07T12:33:15;20.30;50.20
44863;DHT22;30597;49.628;10.850;2022-12-07T12:35:44;20.30;50.20
44863;DHT22;30597;49.628;10.850;2022-12-07T12:38:32;20.30;50.20
44863;DHT22;30597;49.628;10.850;2022-12-07T12:41:02;20.30;50.20
44863;DHT22;30597;49.628;10.850;2022-12-07T12:43:45;20.30;50.10
44863;DHT22;30597;49.628;10.850;2022-12-07T12:54:34;20.30;50.10
44863;DHT22;30597;49.628;10.850;2022-12-07T12:59:36;20.30;50.10
44863;DHT22;30597;49.628;10.850;2022-12-07T13:02:36;20.30;50.10
44863;DHT22;30597;49.628;10.850;2022-12-07T13:13:05;20.30;50.00
44863;DHT22;30597;49.628;10.850;2022-12-07T13:18:41;20.30;50.00
44863;DHT22;30597;49.628;10.850;2022-12-07T13:31:44;20.40;50.00
44863;DHT22;30597;49.628;10.850;2022-12-07T13:34:32;20.40;49.90
44863;DHT22;30597;49.628;10.850;2022-12-07T13:37:14;20.40;49.80
44863;DHT22;30597;49.628;10.850;2022-12-07T13:39:49;20.40;49.80
44863;DHT22;30597;49.628;10.850;2022-12-07T13:42:27;20.40;49.80
44863;DHT22;30597;49.628;10.850;2022-12-07T13:44:53;20.40;49.80
44863;DHT22;30597;49.628;10.850;2022-12-07T13:47:34;20.40;49.80
44863;DHT22;30597;49.628;10.850;2022-12-07T13:50:01;20.40;49.70
44863;DHT22;30597;49.628;10.850;2022-12-07T13:52:29;20.40;49.70
44863;DHT22;30597;49.628;10.850;2022-12-07T13:54:56;20.40;49.70
44863;DHT22;30597;49.628;10.850;2022-12-07T13:57:24;20.40;49.70
44863;DHT22;30597;49.628;10.850;2022-12-07T13:59:50;20.40;49.70
44863;DHT22;30597;49.628;10.850;2022-12-07T14:04:45;20.40;49.60
44863;DHT22;30597;49.628;10.850;2022-12-07T14:07:28;20.50;49.60
44863;DHT22;30597;49.628;10.850;2022-12-07T14:09:56;20.50;49.60
44863;DHT22;30597;49.628;10.850;2022-12-07T14:12:22;20.50;49.50
44863;DHT22;30597;49.628;10.850;2022-12-07T14:14:48;20.50;49.50
44863;DHT22;30597;49.628;10.850;2022-12-07T14:17:21;20.50;49.40
44863;DHT22;30597;49.628;10.850;2022-12-07T14:19:51;20.50;49.40
44863;DHT22;30597;49.628;10.850;2022-12-07T14:22:25;20.50;49.40
44863;DHT22;30597;49.628;10.850;2022-12-07T14:25:02;20.50;49.40
44863;DHT22;30597;49.628;10.850;2022-12-07T14:27:34;20.50;49.40
44863;DHT22;30597;49.628;10.850;2022-12-07T14:30:02;20.50;49.40
44863;DHT22;30597;49.628;10.850;2022-12-07T14:32:29;20.50;49.40
44863;DHT22;30597;49.628;10.850;2022-12-07T14:35:10;20.50;49.40
44863;DHT22;30597;49.628;10.850;2022-12-07T14:37:37;20.50;49.40
44863;DHT22;30597;49.628;10.850;2022-12-07T14:40:04;20.50;49.40
44863;DHT22;30597;49.628;10.850;2022-12-07T14:42:30;20.50;49.40
44863;DHT22;30597;49.628;10.850;2022-12-07T14:44:57;20.60;49.40
44863;DHT22;30597;49.628;10.850;2022-12-07T14:47:24;20.60;49.40
44863;DHT22;30597;49.628;10.850;2022-12-07T14:49:50;20.50;49.40
44863;DHT22;30597;49.628;10.850;2022-12-07T14:52:27;20.60;49.40
44863;DHT22;30597;49.628;10.850;2022-12-07T14:54:53;20.60;49.40
44863;DHT22;30597;49.628;10.850;2022-12-07T14:57:19;20.50;49.30
44863;DHT22;30597;49.628;10.850;2022-12-07T14:59:44;20.60;49.40
44863;DHT22;30597;49.628;10.850;2022-12-07T15:02:14;20.60;49.40
44863;DHT22;30597;49.628;10.850;2022-12-07T15:04:40;20.60;49.40
44863;DHT22;30597;49.628;10.850;2022-12-07T15:07:12;20.60;49.40
44863;DHT22;30597;49.628;10.850;2022-12-07T15:09:39;20.60;49.30
44863;DHT22;30597;49.628;10.850;2022-12-07T15:12:05;20.60;49.30
44863;DHT22;30597;49.628;10.850;2022-12-07T15:14:30;20.60;49.30
44863;DHT22;30597;49.628;10.850;2022-12-07T15:16:56;20.60;49.30
44863;DHT22;30597;49.628;10.850;2022-12-07T15:19:23;20.60;49.30
44863;DHT22;30597;49.628;10.850;2022-12-07T15:21:51;20.60;49.90
44863;DHT22;30597;49.628;10.850;2022-12-07T15:24:17;20.60;49.20
44863;DHT22;30597;49.628;10.850;2022-12-07T15:26:43;20.60;49.30
44863;DHT22;30597;49.628;10.850;2022-12-07T15:29:09;20.60;49.40
44863;DHT22;30597;49.628;10.850;2022-12-07T15:31:35;20.60;49.20
44863;DHT22;30597;49.628;10.850;2022-12-07T15:34:02;20.60;49.40
44863;DHT22;30597;49.628;10.850;2022-12-07T15:36:29;20.60;49.50
44863;DHT22;30597;49.628;10.850;2022-12-07T15:38:55;20.60;49.50
44863;DHT22;30597;49.628;10.850;2022-12-07T15:41:21;20.60;49.50
44863;DHT22;30597;49.628;10.850;2022-12-07T15:43:47;20.60;49.50
44863;DHT22;30597;49.628;10.850;2022-12-07T15:46:32;20.60;49.50
44863;DHT22;30597;49.628;10.850;2022-12-07T15:48:59;20.60;49.60
44863;DHT22;30597;49.628;10.850;2022-12-07T15:51:24;20.60;49.60
44863;DHT22;30597;49.628;10.850;2022-12-07T15:53:50;20.60;49.60
44863;DHT22;30597;49.628;10.850;2022-12-07T15:56:16;20.60;49.60
44863;DHT22;30597;49.628;10.850;2022-12-07T15:58:42;20.60;49.60
44863;DHT22;30597;49.628;10.850;2022-12-07T16:01:12;20.60;49.60
44863;DHT22;30597;49.628;10.850;2022-12-07T16:03:38;20.70;49.70
44863;DHT22;30597;49.628;10.850;2022-12-07T16:06:04;20.70;49.70
44863;DHT22;30597;49.628;10.850;2022-12-07T16:08:29;20.70;49.70
44863;DHT22;30597;49.628;10.850;2022-12-07T16:10:55;20.60;49.70
44863;DHT22;30597;49.628;10.850;2022-12-07T16:13:20;20.70;49.80
44863;DHT22;30597;49.628;10.850;2022-12-07T16:15:46;20.70;49.80
44863;DHT22;30597;49.628;10.850;2022-12-07T16:18:12;20.70;49.80
44863;DHT22;30597;49.628;10.850;2022-12-07T16:20:37;20.70;49.80
44863;DHT22;30597;49.628;10.850;2022-12-07T16:23:03;20.70;49.70
44863;DHT22;30597;49.628;10.850;2022-12-07T16:25:29;20.70;49.70
44863;DHT22;30597;49.628;10.850;2022-12-07T16:27:54;20.70;49.70
44863;DHT22;30597;49.628;10.850;2022-12-07T16:30:20;20.70;49.70
44863;DHT22;30597;49.628;10.850;2022-12-07T16:32:46;20.70;49.70
44863;DHT22;30597;49.628;10.850;2022-12-07T16:35:12;20.70;49.60
44863;DHT22;30597;49.628;10.850;2022-12-07T16:37:38;20.70;49.60
44863;DHT22;30597;49.628;10.850;2022-12-07T16:40:04;20.70;49.70
44863;DHT22;30597;49.628;10.850;2022-12-07T16:42:34;20.70;49.60
44863;DHT22;30597;49.628;10.850;2022-12-07T16:45:01;20.70;49.60
44863;DHT22;30597;49.628;10.850;2022-12-07T16:47:26;20.70;49.60
44863;DHT22;30597;49.628;10.850;2022-12-07T16:49:52;20.70;49.60
44863;DHT22;30597;49.628;10.850;2022-12-07T16:52:19;20.70;49.70
44863;DHT22;30597;49.628;10.850;2022-12-07T16:54:44;20.70;49.70
44863;DHT22;30597;49.628;10.850;2022-12-07T16:57:10;20.70;49.70
44863;DHT22;30597;49.628;10.850;2022-12-07T16:59:36;20.70;49.60
44863;DHT22;30597;49.628;10.850;2022-12-07T17:02:01;20.70;49.70
44863;DHT22;30597;49.628;10.850;2022-12-07T17:04:27;20.70;49.70
44863;DHT22;30597;49.628;10.850;2022-12-07T17:06:53;20.70;49.70
44863;DHT22;30597;49.628;10.850;2022-12-07T17:09:19;20.70;49.70
44863;DHT22;30597;49.628;10.850;2022-12-07T17:11:45;20.70;49.60
44863;DHT22;30597;49.628;10.850;2022-12-07T17:14:10;20.70;49.70
44863;DHT22;30597;49.628;10.850;2022-12-07T17:16:54;20.70;49.60
44863;DHT22;30597;49.628;10.850;2022-12-07T17:19:20;20.70;49.60
44863;DHT22;30597;49.628;10.850;2022-12-07T17:21:46;20.60;49.50
44863;DHT22;30597;49.628;10.850;2022-12-07T17:24:13;20.70;49.60
44863;DHT22;30597;49.628;10.850;2022-12-07T17:26:40;20.70;49.50
44863;DHT22;30597;49.628;10.850;2022-12-07T17:29:07;20.70;49.50
44863;DHT22;30597;49.628;10.850;2022-12-07T17:31:34;20.70;49.60